sensor_id;sensor_type;location;lat;lon;timestamp;pressure;altitude;pressure_sealevel;temperature;humidity
61742;BME280;47650;49.848;9.620;2023-02-20T00:01:46;100605.19;;;8.77;78.46
61742;BME280;47650;49.848;9.620;2023-02-20T00:04:12;100609.81;;;8.87;78.21
61742;BME280;47650;49.848;9.620;2023-02-20T00:06:38;100621.72;;;9.05;77.81
61742;BME280;47650;49.848;9.620;2023-02-20T00:09:04;100606.88;;;9.15;76.86
61742;BME280;47650;49.848;9.620;2023-02-20T00:11:29;100602.13;;;9.08;76.49
61742;BME280;47650;49.848;9.620;2023-02-20T00:13:55;100600.31;;;9.08;76.99
61742;BME280;47650;49.848;9.620;2023-02-20T00:16:21;100604.25;;;9.02;76.97
61742;BME280;47650;49.848;9.620;2023-02-20T00:18:48;100602.84;;;8.85;77.05
61742;BME280;47650;49.848;9.620;2023-02-20T00:21:20;100579.50;;;8.79;76.63
61742;BME280;47650;49.848;9.620;2023-02-20T00:23:46;100598.66;;;9.31;76.33
61742;BME280;47650;49.848;9.620;2023-02-20T00:26:19;100589.41;;;9.13;77.17
61742;BME280;47650;49.848;9.620;2023-02-20T00:28:45;100522.16;;;8.43;76.86
61742;BME280;47650;49.848;9.620;2023-02-20T00:31:14;100561.22;;;9.25;75.91
61742;BME280;47650;49.848;9.620;2023-02-20T00:33:40;100558.97;;;9.07;76.31
61742;BME280;47650;49.848;9.620;2023-02-20T00:36:07;100544.41;;;8.64;76.24
61742;BME280;47650;49.848;9.620;2023-02-20T00:38:43;100519.41;;;8.44;77.04
61742;BME280;47650;49.848;9.620;2023-02-20T00:41:11;100576.53;;;8.71;77.08
61742;BME280;47650;49.848;9.620;2023-02-20T00:43:40;100577.53;;;8.94;76.37
61742;BME280;47650;49.848;9.620;2023-02-20T00:46:10;100580.22;;;8.81;76.30
61742;BME280;47650;49.848;9.620;2023-02-20T00:48:36;100566.06;;;8.82;75.73
61742;BME280;47650;49.848;9.620;2023-02-20T00:51:04;100518.63;;;8.55;76.44
61742;BME280;47650;49.848;9.620;2023-02-20T00:53:42;100568.81;;;8.68;75.75
61742;BME280;47650;49.848;9.620;2023-02-20T00:56:07;100549.00;;;8.24;77.39
61742;BME280;47650;49.848;9.620;2023-02-20T00:58:33;100573.16;;;8.69;76.93
61742;BME280;47650;49.848;9.620;2023-02-20T01:01:00;100545.41;;;8.38;77.11
61742;BME280;47650;49.848;9.620;2023-02-20T01:03:31;100582.84;;;8.81;76.78
61742;BME280;47650;49.848;9.620;2023-02-20T01:05:57;100578.09;;;8.87;76.35
61742;BME280;47650;49.848;9.620;2023-02-20T01:08:32;100564.19;;;8.96;75.68
61742;BME280;47650;49.848;9.620;2023-02-20T01:11:09;100532.56;;;9.18;75.21
61742;BME280;47650;49.848;9.620;2023-02-20T01:13:44;100584.63;;;9.18;75.08
61742;BME280;47650;49.848;9.620;2023-02-20T01:16:12;100580.56;;;9.01;75.27
61742;BME280;47650;49.848;9.620;2023-02-20T01:18:43;100547.41;;;9.08;75.01
61742;BME280;47650;49.848;9.620;2023-02-20T01:21:19;100585.06;;;8.88;75.68
61742;BME280;47650;49.848;9.620;2023-02-20T01:23:45;100585.84;;;9.01;76.01
61742;BME280;47650;49.848;9.620;2023-02-20T01:26:19;100528.88;;;8.60;75.49
61742;BME280;47650;49.848;9.620;2023-02-20T01:28:55;100593.91;;;8.99;76.36
61742;BME280;47650;49.848;9.620;2023-02-20T01:31:21;100573.91;;;8.71;75.92
61742;BME280;47650;49.848;9.620;2023-02-20T01:33:46;100581.97;;;8.57;76.49
61742;BME280;47650;49.848;9.620;2023-02-20T01:36:21;100562.28;;;8.61;76.34
61742;BME280;47650;49.848;9.620;2023-02-20T01:38:56;100591.56;;;8.58;76.29
61742;BME280;47650;49.848;9.620;2023-02-20T01:41:33;100568.31;;;9.00;74.71
61742;BME280;47650;49.848;9.620;2023-02-20T01:43:58;100510.63;;;8.31;75.07
61742;BME280;47650;49.848;9.620;2023-02-20T01:49:00;100547.50;;;8.45;75.60
61742;BME280;47650;49.848;9.620;2023-02-20T01:51:33;100573.22;;;8.80;75.29
61742;BME280;47650;49.848;9.620;2023-02-20T01:54:03;100550.53;;;8.65;75.39
61742;BME280;47650;49.848;9.620;2023-02-20T01:56:35;100555.22;;;8.85;74.23
61742;BME280;47650;49.848;9.620;2023-02-20T01:59:12;100566.13;;;8.57;75.73
61742;BME280;47650;49.848;9.620;2023-02-20T02:01:38;100527.88;;;8.50;74.79
61742;BME280;47650;49.848;9.620;2023-02-20T02:04:11;100559.50;;;8.99;74.27
61742;BME280;47650;49.848;9.620;2023-02-20T02:06:49;100539.38;;;9.10;73.27
61742;BME280;47650;49.848;9.620;2023-02-20T02:09:33;100546.88;;;9.16;72.57
61742;BME280;47650;49.848;9.620;2023-02-20T02:12:01;100496.91;;;9.00;72.80
61742;BME280;47650;49.848;9.620;2023-02-20T02:14:27;100554.81;;;8.92;73.44
61742;BME280;47650;49.848;9.620;2023-02-20T02:17:33;100535.31;;;8.93;74.38
61742;BME280;47650;49.848;9.620;2023-02-20T02:40:43;100545.41;;;8.25;75.09
61742;BME280;47650;49.848;9.620;2023-02-20T02:46:14;100537.47;;;7.99;75.41
61742;BME280;47650;49.848;9.620;2023-02-20T02:48:52;100527.88;;;8.24;74.32
61742;BME280;47650;49.848;9.620;2023-02-20T02:51:22;100534.31;;;8.20;73.49
61742;BME280;47650;49.848;9.620;2023-02-20T02:54:15;100520.13;;;8.34;73.34
61742;BME280;47650;49.848;9.620;2023-02-20T02:56:46;100529.25;;;8.17;73.38
61742;BME280;47650;49.848;9.620;2023-02-20T02:59:30;100510.63;;;8.18;73.04
61742;BME280;47650;49.848;9.620;2023-02-20T03:02:00;100502.09;;;8.02;73.38
61742;BME280;47650;49.848;9.620;2023-02-20T03:04:44;100536.31;;;7.90;73.35
61742;BME280;47650;49.848;9.620;2023-02-20T03:07:15;100505.28;;;7.68;73.50
61742;BME280;47650;49.848;9.620;2023-02-20T03:09:50;100520.69;;;8.00;72.57
61742;BME280;47650;49.848;9.620;2023-02-20T03:12:22;100523.66;;;7.83;72.80
61742;BME280;47650;49.848;9.620;2023-02-20T03:14:59;100515.41;;;7.75;73.11
61742;BME280;47650;49.848;9.620;2023-02-20T03:17:51;100537.38;;;7.62;73.93
61742;BME280;47650;49.848;9.620;2023-02-20T03:20:23;100505.59;;;7.51;73.56
61742;BME280;47650;49.848;9.620;2023-02-20T03:22:57;100529.88;;;8.07;71.75
61742;BME280;47650;49.848;9.620;2023-02-20T03:25:30;100522.69;;;8.09;71.79
61742;BME280;47650;49.848;9.620;2023-02-20T03:28:10;100525.56;;;7.94;72.27
61742;BME280;47650;49.848;9.620;2023-02-20T03:33:28;100485.22;;;7.91;70.75
61742;BME280;47650;49.848;9.620;2023-02-20T03:36:31;100503.38;;;7.96;70.70
61742;BME280;47650;49.848;9.620;2023-02-20T03:39:30;100487.09;;;8.02;70.39
61742;BME280;47650;49.848;9.620;2023-02-20T03:42:18;100513.94;;;8.22;70.28
61742;BME280;47650;49.848;9.620;2023-02-20T03:45:07;100468.94;;;8.10;69.93
61742;BME280;47650;49.848;9.620;2023-02-20T03:47:41;100527.03;;;8.10;70.08
61742;BME280;47650;49.848;9.620;2023-02-20T03:50:17;100507.81;;;7.83;70.94
61742;BME280;47650;49.848;9.620;2023-02-20T03:52:48;100521.19;;;8.57;69.11
61742;BME280;47650;49.848;9.620;2023-02-20T03:55:15;100521.09;;;8.33;68.79
61742;BME280;47650;49.848;9.620;2023-02-20T03:58:08;100528.81;;;8.49;68.25
61742;BME280;47650;49.848;9.620;2023-02-20T04:00:43;100531.25;;;8.26;69.00
61742;BME280;47650;49.848;9.620;2023-02-20T04:03:15;100518.44;;;8.20;68.83
61742;BME280;47650;49.848;9.620;2023-02-20T04:05:45;100426.94;;;7.43;69.64
61742;BME280;47650;49.848;9.620;2023-02-20T04:11:00;100535.06;;;8.09;68.95
61742;BME280;47650;49.848;9.620;2023-02-20T04:13:36;100540.13;;;7.86;70.03
61742;BME280;47650;49.848;9.620;2023-02-20T04:16:03;100512.97;;;7.97;69.66
61742;BME280;47650;49.848;9.620;2023-02-20T04:18:30;100549.22;;;7.82;70.11
61742;BME280;47650;49.848;9.620;2023-02-20T04:20:58;100506.75;;;7.72;69.97
61742;BME280;47650;49.848;9.620;2023-02-20T04:23:35;100531.97;;;7.77;70.33
61742;BME280;47650;49.848;9.620;2023-02-20T04:26:19;100533.06;;;7.74;69.34
61742;BME280;47650;49.848;9.620;2023-02-20T04:28:56;100550.38;;;8.04;69.48
61742;BME280;47650;49.848;9.620;2023-02-20T04:31:21;100544.34;;;7.76;69.20
61742;BME280;47650;49.848;9.620;2023-02-20T04:33:57;100538.00;;;8.04;68.58
61742;BME280;47650;49.848;9.620;2023-02-20T04:36:34;100523.75;;;7.81;69.37
61742;BME280;47650;49.848;9.620;2023-02-20T04:39:01;100547.31;;;7.97;68.93
61742;BME280;47650;49.848;9.620;2023-02-20T04:41:26;100536.53;;;8.00;68.64
61742;BME280;47650;49.848;9.620;2023-02-20T04:43:51;100505.78;;;7.48;69.31
61742;BME280;47650;49.848;9.620;2023-02-20T04:46:36;100547.00;;;7.63;69.71
61742;BME280;47650;49.848;9.620;2023-02-20T04:49:06;100542.78;;;7.86;68.76
61742;BME280;47650;49.848;9.620;2023-02-20T04:51:34;100532.75;;;7.91;68.43
61742;BME280;47650;49.848;9.620;2023-02-20T04:54:05;100505.75;;;7.22;69.68
61742;BME280;47650;49.848;9.620;2023-02-20T04:56:32;100529.34;;;7.77;68.21
61742;BME280;47650;49.848;9.620;2023-02-20T04:59:08;100533.38;;;7.95;67.79
61742;BME280;47650;49.848;9.620;2023-02-20T05:01:40;100518.59;;;7.80;67.73
61742;BME280;47650;49.848;9.620;2023-02-20T05:04:07;100552.38;;;8.00;68.00
61742;BME280;47650;49.848;9.620;2023-02-20T05:06:32;100506.72;;;7.34;69.69
61742;BME280;47650;49.848;9.620;2023-02-20T05:08:58;100523.22;;;7.63;69.06
61742;BME280;47650;49.848;9.620;2023-02-20T05:11:29;100555.31;;;7.57;69.34
61742;BME280;47650;49.848;9.620;2023-02-20T05:13:54;100537.34;;;7.49;69.35
61742;BME280;47650;49.848;9.620;2023-02-20T05:16:20;100515.38;;;7.49;68.78
61742;BME280;47650;49.848;9.620;2023-02-20T05:18:45;100550.56;;;7.62;69.52
61742;BME280;47650;49.848;9.620;2023-02-20T05:21:14;100551.50;;;7.61;69.42
61742;BME280;47650;49.848;9.620;2023-02-20T05:23:57;100544.75;;;7.57;69.66
61742;BME280;47650;49.848;9.620;2023-02-20T05:26:28;100548.72;;;7.37;70.48
61742;BME280;47650;49.848;9.620;2023-02-20T05:28:54;100498.13;;;7.18;70.00
61742;BME280;47650;49.848;9.620;2023-02-20T05:31:24;100524.00;;;7.25;70.18
61742;BME280;47650;49.848;9.620;2023-02-20T05:34:04;100525.81;;;7.38;70.17
61742;BME280;47650;49.848;9.620;2023-02-20T05:36:32;100533.28;;;7.31;70.76
61742;BME280;47650;49.848;9.620;2023-02-20T05:38:57;100527.09;;;7.32;70.57
61742;BME280;47650;49.848;9.620;2023-02-20T05:41:30;100523.38;;;7.34;70.60
61742;BME280;47650;49.848;9.620;2023-02-20T05:44:04;100518.44;;;7.43;70.58
61742;BME280;47650;49.848;9.620;2023-02-20T05:46:30;100454.44;;;6.73;71.27
61742;BME280;47650;49.848;9.620;2023-02-20T05:48:56;100530.47;;;7.34;71.78
61742;BME280;47650;49.848;9.620;2023-02-20T05:51:25;100527.31;;;7.14;72.48
61742;BME280;47650;49.848;9.620;2023-02-20T05:53:56;100468.41;;;6.88;71.72
61742;BME280;47650;49.848;9.620;2023-02-20T05:56:21;100517.88;;;7.25;72.38
61742;BME280;47650;49.848;9.620;2023-02-20T05:58:47;100494.19;;;7.10;71.93
61742;BME280;47650;49.848;9.620;2023-02-20T06:01:23;100526.91;;;7.08;72.56
61742;BME280;47650;49.848;9.620;2023-02-20T06:03:49;100445.69;;;6.46;73.52
61742;BME280;47650;49.848;9.620;2023-02-20T06:06:33;100516.50;;;6.92;73.89
61742;BME280;47650;49.848;9.620;2023-02-20T06:09:10;100534.16;;;6.77;74.34
61742;BME280;47650;49.848;9.620;2023-02-20T06:11:38;100537.78;;;7.16;73.69
61742;BME280;47650;49.848;9.620;2023-02-20T06:14:06;100504.44;;;6.61;74.65
61742;BME280;47650;49.848;9.620;2023-02-20T06:16:33;100537.66;;;7.05;74.12
61742;BME280;47650;49.848;9.620;2023-02-20T06:19:01;100535.59;;;7.23;73.25
61742;BME280;47650;49.848;9.620;2023-02-20T06:21:28;100500.31;;;7.11;71.93
61742;BME280;47650;49.848;9.620;2023-02-20T06:23:54;100542.38;;;7.40;71.47
61742;BME280;47650;49.848;9.620;2023-02-20T06:26:20;100422.75;;;6.61;71.91
61742;BME280;47650;49.848;9.620;2023-02-20T06:28:47;100505.41;;;7.14;71.69
61742;BME280;47650;49.848;9.620;2023-02-20T06:31:23;100511.00;;;7.22;71.74
61742;BME280;47650;49.848;9.620;2023-02-20T06:34:02;100521.41;;;7.11;72.66
61742;BME280;47650;49.848;9.620;2023-02-20T06:36:30;100514.44;;;6.55;75.50
61742;BME280;47650;49.848;9.620;2023-02-20T06:38:59;100491.25;;;6.33;77.43
61742;BME280;47650;49.848;9.620;2023-02-20T06:41:32;100516.97;;;6.57;76.52
61742;BME280;47650;49.848;9.620;2023-02-20T06:43:59;100515.72;;;6.63;76.87
61742;BME280;47650;49.848;9.620;2023-02-20T06:46:25;100521.56;;;6.68;76.88
61742;BME280;47650;49.848;9.620;2023-02-20T06:48:58;100532.94;;;6.95;75.53
61742;BME280;47650;49.848;9.620;2023-02-20T06:51:35;100525.56;;;7.15;75.22
61742;BME280;47650;49.848;9.620;2023-02-20T06:54:10;100490.69;;;6.70;76.39
61742;BME280;47650;49.848;9.620;2023-02-20T06:56:38;100515.72;;;7.04;75.30
61742;BME280;47650;49.848;9.620;2023-02-20T06:59:05;100534.75;;;7.22;74.44
61742;BME280;47650;49.848;9.620;2023-02-20T07:01:44;100525.75;;;7.52;72.78
61742;BME280;47650;49.848;9.620;2023-02-20T07:04:21;100536.00;;;7.69;72.27
61742;BME280;47650;49.848;9.620;2023-02-20T07:06:49;100528.28;;;8.18;70.88
61742;BME280;47650;49.848;9.620;2023-02-20T07:09:15;100432.22;;;7.30;70.72
61742;BME280;47650;49.848;9.620;2023-02-20T07:11:41;100474.44;;;7.82;69.66
61742;BME280;47650;49.848;9.620;2023-02-20T07:14:09;100522.94;;;8.06;69.27
61742;BME280;47650;49.848;9.620;2023-02-20T07:16:42;100527.88;;;7.98;70.55
61742;BME280;47650;49.848;9.620;2023-02-20T07:19:08;100502.06;;;8.15;69.33
61742;BME280;47650;49.848;9.620;2023-02-20T07:21:34;100532.06;;;8.39;69.41
61742;BME280;47650;49.848;9.620;2023-02-20T07:23:59;100494.69;;;8.20;69.41
61742;BME280;47650;49.848;9.620;2023-02-20T07:26:27;100522.59;;;8.24;69.48
61742;BME280;47650;49.848;9.620;2023-02-20T07:28:53;100527.00;;;8.36;69.88
61742;BME280;47650;49.848;9.620;2023-02-20T07:31:20;100518.13;;;8.50;68.60
61742;BME280;47650;49.848;9.620;2023-02-20T07:33:49;100519.78;;;8.64;67.60
61742;BME280;47650;49.848;9.620;2023-02-20T07:36:16;100491.94;;;8.34;68.57
61742;BME280;47650;49.848;9.620;2023-02-20T07:38:59;100519.78;;;9.12;67.66
61742;BME280;47650;49.848;9.620;2023-02-20T07:41:29;100499.75;;;8.36;69.61
61742;BME280;47650;49.848;9.620;2023-02-20T07:43:58;100499.72;;;8.49;68.91
61742;BME280;47650;49.848;9.620;2023-02-20T07:46:25;100518.25;;;8.73;69.22
61742;BME280;47650;49.848;9.620;2023-02-20T07:48:51;100471.78;;;8.20;69.03
61742;BME280;47650;49.848;9.620;2023-02-20T07:51:30;100515.38;;;8.52;69.62
61742;BME280;47650;49.848;9.620;2023-02-20T07:54:15;100511.84;;;9.36;65.97
61742;BME280;47650;49.848;9.620;2023-02-20T07:56:44;100498.03;;;8.47;68.37
61742;BME280;47650;49.848;9.620;2023-02-20T07:59:14;100483.06;;;8.09;68.70
61742;BME280;47650;49.848;9.620;2023-02-20T08:01:40;100523.75;;;8.82;67.72
61742;BME280;47650;49.848;9.620;2023-02-20T08:04:07;100507.00;;;8.82;67.74
61742;BME280;47650;49.848;9.620;2023-02-20T08:06:34;100505.84;;;8.62;68.40
61742;BME280;47650;49.848;9.620;2023-02-20T08:09:21;100522.47;;;8.75;67.75
61742;BME280;47650;49.848;9.620;2023-02-20T08:11:52;100514.38;;;9.49;66.40
61742;BME280;47650;49.848;9.620;2023-02-20T08:14:20;100512.31;;;10.11;63.09
61742;BME280;47650;49.848;9.620;2023-02-20T08:16:45;100477.84;;;10.22;62.48
61742;BME280;47650;49.848;9.620;2023-02-20T08:19:11;100493.47;;;10.70;60.57
61742;BME280;47650;49.848;9.620;2023-02-20T08:21:50;100507.97;;;10.66;60.29
61742;BME280;47650;49.848;9.620;2023-02-20T08:24:21;100501.94;;;12.23;56.82
61742;BME280;47650;49.848;9.620;2023-02-20T08:26:47;100511.50;;;10.88;59.40
61742;BME280;47650;49.848;9.620;2023-02-20T08:29:15;100508.22;;;12.12;57.25
61742;BME280;47650;49.848;9.620;2023-02-20T08:31:42;100465.28;;;11.65;56.20
61742;BME280;47650;49.848;9.620;2023-02-20T08:34:09;100492.06;;;12.35;53.76
61742;BME280;47650;49.848;9.620;2023-02-20T08:36:35;100516.69;;;12.37;54.49
61742;BME280;47650;49.848;9.620;2023-02-20T08:39:01;100499.03;;;12.67;53.81
61742;BME280;47650;49.848;9.620;2023-02-20T08:41:28;100460.63;;;12.09;54.32
61742;BME280;47650;49.848;9.620;2023-02-20T08:43:55;100487.19;;;12.40;55.15
61742;BME280;47650;49.848;9.620;2023-02-20T08:46:29;100457.66;;;14.81;48.32
61742;BME280;47650;49.848;9.620;2023-02-20T08:49:02;100477.63;;;13.07;52.28
61742;BME280;47650;49.848;9.620;2023-02-20T08:51:47;100469.31;;;11.90;55.11
61742;BME280;47650;49.848;9.620;2023-02-20T08:54:14;100462.34;;;11.37;56.32
61742;BME280;47650;49.848;9.620;2023-02-20T08:56:43;100473.78;;;11.38;57.20
61742;BME280;47650;49.848;9.620;2023-02-20T08:59:08;100467.50;;;11.60;58.19
61742;BME280;47650;49.848;9.620;2023-02-20T09:01:43;100476.59;;;10.71;60.36
61742;BME280;47650;49.848;9.620;2023-02-20T09:04:09;100482.91;;;10.59;61.45
61742;BME280;47650;49.848;9.620;2023-02-20T09:06:37;100496.63;;;10.64;60.90
61742;BME280;47650;49.848;9.620;2023-02-20T09:09:05;100487.69;;;10.77;60.73
61742;BME280;47650;49.848;9.620;2023-02-20T09:11:33;100429.31;;;10.77;60.19
61742;BME280;47650;49.848;9.620;2023-02-20T09:14:00;100493.50;;;11.03;60.56
61742;BME280;47650;49.848;9.620;2023-02-20T09:16:32;100475.66;;;10.61;61.02
61742;BME280;47650;49.848;9.620;2023-02-20T09:18:58;100440.84;;;10.54;60.07
61742;BME280;47650;49.848;9.620;2023-02-20T09:21:25;100486.88;;;10.53;61.30
61742;BME280;47650;49.848;9.620;2023-02-20T09:24:04;100479.44;;;10.91;60.10
61742;BME280;47650;49.848;9.620;2023-02-20T09:26:35;100472.94;;;11.37;59.07
61742;BME280;47650;49.848;9.620;2023-02-20T09:29:01;100475.41;;;11.29;58.78
61742;BME280;47650;49.848;9.620;2023-02-20T09:31:28;100455.31;;;12.69;55.73
61742;BME280;47650;49.848;9.620;2023-02-20T09:33:55;100449.88;;;13.10;53.59
61742;BME280;47650;49.848;9.620;2023-02-20T09:36:21;100448.19;;;13.09;54.17
61742;BME280;47650;49.848;9.620;2023-02-20T09:38:54;100447.75;;;13.90;51.18
61742;BME280;47650;49.848;9.620;2023-02-20T09:41:28;100423.75;;;13.52;53.04
61742;BME280;47650;49.848;9.620;2023-02-20T09:44:15;100435.69;;;15.05;47.53
61742;BME280;47650;49.848;9.620;2023-02-20T09:46:46;100397.09;;;15.26;47.42
61742;BME280;47650;49.848;9.620;2023-02-20T09:49:22;100418.00;;;16.17;45.27
61742;BME280;47650;49.848;9.620;2023-02-20T09:52:01;100387.44;;;15.07;46.11
61742;BME280;47650;49.848;9.620;2023-02-20T09:54:35;100434.97;;;13.56;50.22
61742;BME280;47650;49.848;9.620;2023-02-20T09:57:09;100387.50;;;13.79;49.85
61742;BME280;47650;49.848;9.620;2023-02-20T09:59:56;100434.28;;;13.25;51.17
61742;BME280;47650;49.848;9.620;2023-02-20T10:02:44;100430.81;;;14.37;49.65
61742;BME280;47650;49.848;9.620;2023-02-20T10:05:27;100414.56;;;14.12;50.89
61742;BME280;47650;49.848;9.620;2023-02-20T10:07:54;100420.28;;;14.17;49.40
61742;BME280;47650;49.848;9.620;2023-02-20T10:10:32;100414.72;;;15.63;46.52
61742;BME280;47650;49.848;9.620;2023-02-20T10:16:53;100396.47;;;15.58;45.47
61742;BME280;47650;49.848;9.620;2023-02-20T10:19:29;100393.19;;;16.66;43.75
61742;BME280;47650;49.848;9.620;2023-02-20T10:22:12;100393.75;;;16.94;42.88
61742;BME280;47650;49.848;9.620;2023-02-20T10:28:11;100382.00;;;16.95;41.47
61742;BME280;47650;49.848;9.620;2023-02-20T10:30:42;100396.69;;;16.50;42.90
61742;BME280;47650;49.848;9.620;2023-02-20T10:36:16;100376.00;;;17.09;42.44
61742;BME280;47650;49.848;9.620;2023-02-20T10:38:49;100274.53;;;16.24;42.65
61742;BME280;47650;49.848;9.620;2023-02-20T10:44:14;100373.47;;;18.20;39.19
61742;BME280;47650;49.848;9.620;2023-02-20T10:46:55;100373.88;;;18.86;36.70
61742;BME280;47650;49.848;9.620;2023-02-20T10:50:01;100356.50;;;18.74;37.75
61742;BME280;47650;49.848;9.620;2023-02-20T10:52:36;100349.94;;;18.53;38.90
61742;BME280;47650;49.848;9.620;2023-02-20T10:55:10;100364.63;;;18.11;39.01
61742;BME280;47650;49.848;9.620;2023-02-20T10:57:47;100370.28;;;17.21;40.58
61742;BME280;47650;49.848;9.620;2023-02-20T11:00:19;100345.94;;;18.72;38.05
61742;BME280;47650;49.848;9.620;2023-02-20T11:02:52;100336.66;;;18.29;37.95
61742;BME280;47650;49.848;9.620;2023-02-20T11:05:22;100324.44;;;18.95;36.23
61742;BME280;47650;49.848;9.620;2023-02-20T11:07:49;100299.38;;;19.84;35.71
61742;BME280;47650;49.848;9.620;2023-02-20T11:10:15;100325.22;;;19.49;35.32
61742;BME280;47650;49.848;9.620;2023-02-20T11:12:50;100322.88;;;18.09;36.88
61742;BME280;47650;49.848;9.620;2023-02-20T11:15:30;100314.31;;;17.34;38.20
61742;BME280;47650;49.848;9.620;2023-02-20T11:18:34;100313.25;;;19.07;36.27
61742;BME280;47650;49.848;9.620;2023-02-20T11:21:02;100305.94;;;18.54;37.39
61742;BME280;47650;49.848;9.620;2023-02-20T11:23:48;100299.03;;;18.83;36.22
61742;BME280;47650;49.848;9.620;2023-02-20T11:26:31;100282.19;;;18.20;38.04
61742;BME280;47650;49.848;9.620;2023-02-20T11:29:29;100279.72;;;18.79;36.33
61742;BME280;47650;49.848;9.620;2023-02-20T11:32:16;100275.53;;;17.53;37.62
61742;BME280;47650;49.848;9.620;2023-02-20T11:34:46;100286.91;;;18.79;36.48
61742;BME280;47650;49.848;9.620;2023-02-20T11:37:21;100234.94;;;18.95;34.86
61742;BME280;47650;49.848;9.620;2023-02-20T11:39:55;100289.09;;;17.60;38.31
61742;BME280;47650;49.848;9.620;2023-02-20T11:42:34;100283.03;;;17.97;37.56
61742;BME280;47650;49.848;9.620;2023-02-20T11:45:35;100272.78;;;18.01;38.01
61742;BME280;47650;49.848;9.620;2023-02-20T11:48:10;100276.28;;;18.48;36.59
61742;BME280;47650;49.848;9.620;2023-02-20T11:50:48;100265.19;;;20.00;34.45
61742;BME280;47650;49.848;9.620;2023-02-20T11:53:30;100265.50;;;19.09;34.95
61742;BME280;47650;49.848;9.620;2023-02-20T11:56:16;100225.72;;;20.07;33.93
61742;BME280;47650;49.848;9.620;2023-02-20T11:58:45;100224.63;;;20.66;32.82
61742;BME280;47650;49.848;9.620;2023-02-20T12:01:31;100217.84;;;20.55;32.04
61742;BME280;47650;49.848;9.620;2023-02-20T12:03:58;100249.19;;;19.25;34.90
61742;BME280;47650;49.848;9.620;2023-02-20T12:06:40;100240.56;;;18.01;35.42
61742;BME280;47650;49.848;9.620;2023-02-20T12:09:29;100246.97;;;18.00;35.58
61742;BME280;47650;49.848;9.620;2023-02-20T12:11:56;100195.22;;;16.64;36.30
61742;BME280;47650;49.848;9.620;2023-02-20T12:14:21;100228.75;;;17.16;36.20
61742;BME280;47650;49.848;9.620;2023-02-20T12:17:00;100205.53;;;19.60;31.34
61742;BME280;47650;49.848;9.620;2023-02-20T12:19:53;100215.25;;;20.97;29.51
61742;BME280;47650;49.848;9.620;2023-02-20T12:36:08;100192.63;;;18.59;32.41
61742;BME280;47650;49.848;9.620;2023-02-20T12:38:48;100221.63;;;18.78;33.21
61742;BME280;47650;49.848;9.620;2023-02-20T12:41:28;100204.31;;;18.81;33.07
61742;BME280;47650;49.848;9.620;2023-02-20T12:58:45;100181.09;;;18.35;34.15
61742;BME280;47650;49.848;9.620;2023-02-20T13:01:15;100176.66;;;19.47;32.41
61742;BME280;47650;49.848;9.620;2023-02-20T13:04:02;100129.94;;;17.99;33.84
61742;BME280;47650;49.848;9.620;2023-02-20T13:06:59;100163.66;;;19.14;33.25
61742;BME280;47650;49.848;9.620;2023-02-20T13:09:51;100145.63;;;18.25;34.07
61742;BME280;47650;49.848;9.620;2023-02-20T13:12:19;100130.22;;;19.75;32.95
61742;BME280;47650;49.848;9.620;2023-02-20T13:17:58;100136.97;;;19.49;32.90
61742;BME280;47650;49.848;9.620;2023-02-20T13:20:37;100142.44;;;18.74;33.67
61742;BME280;47650;49.848;9.620;2023-02-20T13:25:50;100117.94;;;21.27;29.98
61742;BME280;47650;49.848;9.620;2023-02-20T13:28:25;100118.69;;;19.08;32.52
61742;BME280;47650;49.848;9.620;2023-02-20T13:31:18;100121.25;;;20.45;31.22
61742;BME280;47650;49.848;9.620;2023-02-20T13:49:52;100102.25;;;19.54;32.95
61742;BME280;47650;49.848;9.620;2023-02-20T13:52:39;100092.06;;;19.92;31.97
61742;BME280;47650;49.848;9.620;2023-02-20T14:03:12;100051.88;;;20.54;31.60
61742;BME280;47650;49.848;9.620;2023-02-20T14:05:39;100059.31;;;20.17;32.51
61742;BME280;47650;49.848;9.620;2023-02-20T14:08:16;100053.13;;;21.00;30.90
61742;BME280;47650;49.848;9.620;2023-02-20T14:10:49;100041.31;;;19.40;33.78
61742;BME280;47650;49.848;9.620;2023-02-20T14:13:21;100035.50;;;19.86;33.18
61742;BME280;47650;49.848;9.620;2023-02-20T14:18:30;100030.00;;;20.29;32.61
61742;BME280;47650;49.848;9.620;2023-02-20T14:21:13;100044.50;;;20.28;32.54
61742;BME280;47650;49.848;9.620;2023-02-20T14:23:45;100023.78;;;20.28;32.43
61742;BME280;47650;49.848;9.620;2023-02-20T14:26:31;100029.44;;;20.05;32.78
61742;BME280;47650;49.848;9.620;2023-02-20T14:28:59;100029.47;;;19.12;34.02
61742;BME280;47650;49.848;9.620;2023-02-20T14:31:34;100021.00;;;19.37;34.39
61742;BME280;47650;49.848;9.620;2023-02-20T14:42:44;100024.28;;;18.15;35.15
61742;BME280;47650;49.848;9.620;2023-02-20T14:45:17;99991.75;;;18.69;34.27
61742;BME280;47650;49.848;9.620;2023-02-20T14:47:53;99954.69;;;17.83;34.27
61742;BME280;47650;49.848;9.620;2023-02-20T14:50:29;100012.34;;;18.62;34.11
61742;BME280;47650;49.848;9.620;2023-02-20T14:53:13;100029.44;;;17.87;35.20
61742;BME280;47650;49.848;9.620;2023-02-20T14:55:41;99994.91;;;18.88;33.54
61742;BME280;47650;49.848;9.620;2023-02-20T14:58:10;99985.13;;;19.02;33.17
61742;BME280;47650;49.848;9.620;2023-02-20T15:00:41;100009.78;;;19.12;33.39
61742;BME280;47650;49.848;9.620;2023-02-20T15:03:10;99936.16;;;18.48;33.48
61742;BME280;47650;49.848;9.620;2023-02-20T15:05:51;99982.06;;;19.83;32.53
61742;BME280;47650;49.848;9.620;2023-02-20T15:08:21;99992.94;;;18.67;33.67
61742;BME280;47650;49.848;9.620;2023-02-20T15:10:55;99990.00;;;18.98;32.95
61742;BME280;47650;49.848;9.620;2023-02-20T15:13:24;99987.16;;;18.48;34.28
61742;BME280;47650;49.848;9.620;2023-02-20T15:16:21;99989.56;;;18.94;34.22
61742;BME280;47650;49.848;9.620;2023-02-20T15:18:48;99979.47;;;19.18;33.19
61742;BME280;47650;49.848;9.620;2023-02-20T15:21:36;99965.06;;;19.76;32.60